Guide — WDE7328 — position and weather

sailwx.info

Track history (hours):
 
Tides and Currents Weather Stations Pressure Air Temp Water Temp Dewpoint Dewpoint Depression Visibility Wind Speed Wind Dir Waves Ship Positions

Guide

Owner: Crowley Marine Services, SEATTLE, WA. More information available from US FCC via Universal Licensing System and Coast Guard Vessel Documentation Center.

Last reported at 2016-Apr-29 07:32 UTC. Time now 2016-Apr-29 08:19 UTC.
Position N 47°17' W 122°26'.

Length 34 m; draft 5.1 m.

Type: Tug. MMSI: 366759530.

Date/timePositionNaut miles runAvg speedWind from/ knotsBaromVisibWave heightAir tempDewpointWater temp
2016-Apr-29 07:32N 47°17' W 122°26'2 1.9
2016-Apr-29 06:31N 47°15' W 122°26'0 0.0
2016-Apr-29 05:33N 47°15' W 122°26'0 0.0
2016-Apr-29 04:33N 47°15' W 122°26'0 0.0
2016-Apr-29 03:33N 47°15' W 122°26'0 0.0
2016-Apr-29 02:24N 47°15' W 122°26'2 1.7
2016-Apr-29 01:23N 47°16' W 122°24'1 1.2
2016-Apr-29 00:33N 47°15' W 122°23'2 2.4
2016-Apr-28 23:33N 47°15' W 122°26'0 0.0
2016-Apr-28 22:32N 47°15' W 122°26'0 0.0
2016-Apr-28 21:28N 47°15' W 122°26'0 0.0
2016-Apr-28 20:32N 47°15' W 122°26'0 0.0
2016-Apr-28 19:33N 47°15' W 122°26'0 0.0
2016-Apr-28 18:33N 47°15' W 122°26'0 0.0
2016-Apr-28 17:33N 47°15' W 122°26'0 0.0
2016-Apr-28 16:33N 47°15' W 122°26'0 0.0
2016-Apr-28 15:33N 47°15' W 122°26'0 0.0
2016-Apr-28 14:33N 47°15' W 122°26'0 0.0
2016-Apr-28 13:33N 47°15' W 122°26'0 0.0
2016-Apr-28 12:33N 47°15' W 122°26'0 0.0
2016-Apr-28 11:33N 47°15' W 122°26'2 0.6
2016-Apr-28 07:29N 47°18' W 122°26'0 0.0
2016-Apr-28 06:32N 47°18' W 122°26'0 0.0
2016-Apr-28 05:33N 47°18' W 122°26'0 0.0
2016-Apr-28 04:32N 47°18' W 122°26'2 1.6
2016-Apr-28 03:33N 47°16' W 122°25'2 1.6
2016-Apr-28 02:33N 47°18' W 122°26'0 0.0
2016-Apr-28 01:33N 47°18' W 122°26'1 0.5
2016-Apr-28 00:33N 47°17' W 122°26'2 2.4
2016-Apr-27 23:33N 47°16' W 122°23'2 1.5
2016-Apr-27 22:33N 47°17' W 122°25'0 0.4
2016-Apr-27 21:28N 47°16' W 122°24'2 1.7
2016-Apr-27 20:33N 47°17' W 122°26'2 1.7
2016-Apr-27 19:22N 47°15' W 122°26'0 0.0
2016-Apr-27 18:33N 47°15' W 122°26'0 0.0
2016-Apr-27 17:33N 47°15' W 122°26'0 0.0
2016-Apr-27 16:33N 47°15' W 122°26'0 0.0
2016-Apr-27 15:33N 47°15' W 122°26'0 0.0
2016-Apr-27 14:33N 47°15' W 122°26'0 0.0
2016-Apr-27 13:33N 47°15' W 122°26'0 0.0
2016-Apr-27 12:33N 47°15' W 122°26'0 0.0
2016-Apr-27 11:33N 47°15' W 122°26'2 1.7
2016-Apr-27 10:33N 47°17' W 122°25'2 1.9
2016-Apr-27 09:33N 47°16' W 122°23'1 0.4
2016-Apr-27 07:32N 47°16' W 122°24'1 0.7
2016-Apr-27 06:33N 47°16' W 122°25'1 1.5
2016-Apr-27 05:32N 47°18' W 122°26'0 0.1
2016-Apr-27 04:33N 47°18' W 122°26'0 0.0
2016-Apr-27 03:33N 47°18' W 122°26'0 0.0
2016-Apr-27 02:33N 47°18' W 122°26'1 1.0
2016-Apr-27 01:33N 47°17' W 122°25'2 1.7
2016-Apr-27 00:32N 47°16' W 122°23'2 1.5
2016-Apr-26 23:33N 47°17' W 122°25'0 0.1
2016-Apr-26 22:33N 47°17' W 122°25'2 1.6
2016-Apr-26 21:33N 47°15' W 122°26'0 0.0
2016-Apr-26 20:32N 47°15' W 122°26'0 0.0
2016-Apr-26 19:33N 47°15' W 122°26'0 0.0
2016-Apr-26 18:31N 47°15' W 122°26'0 0.0
2016-Apr-26 17:33N 47°15' W 122°26'0 0.0
2016-Apr-26 16:33N 47°15' W 122°26'0 0.0
2016-Apr-26 15:33N 47°15' W 122°26'0 0.0
2016-Apr-26 14:33N 47°15' W 122°26'1 0.8
2016-Apr-26 13:33N 47°16' W 122°26'3 2.3
2016-Apr-26 12:24N 47°15' W 122°23'3 3.2
2016-Apr-26 11:33N 47°17' W 122°26'2 2.0
2016-Apr-26 10:33N 47°15' W 122°26'0 0.0
2016-Apr-26 09:33N 47°15' W 122°26'0 0.0
2016-Apr-26 08:33N 47°15' W 122°26'0 0.0
2016-Apr-26 07:33N 47°15' W 122°26'0 0.0
2016-Apr-26 06:33N 47°15' W 122°26'0 0.0
2016-Apr-26 05:33N 47°15' W 122°26'0 0.0
2016-Apr-26 04:33N 47°15' W 122°26'0 0.0
2016-Apr-26 03:33N 47°15' W 122°26'0 0.0
2016-Apr-26 02:33N 47°15' W 122°26'0 0.0
2016-Apr-26 01:33N 47°15' W 122°26'0 0.0
2016-Apr-26 00:33N 47°15' W 122°26'1 1.1
2016-Apr-25 23:33N 47°16' W 122°25'0 0.0
2016-Apr-25 22:33N 47°16' W 122°25'0 0.4
2016-Apr-25 21:33N 47°16' W 122°25'1 1.1
2016-Apr-25 20:33N 47°17' W 122°26'3 2.6
2016-Apr-25 19:33N 47°16' W 122°23'1 1.3
2016-Apr-25 18:33N 47°16' W 122°24'2 1.6
2016-Apr-25 17:33N 47°15' W 122°26'0 0.0
2016-Apr-25 16:33N 47°15' W 122°26'0 0.0
2016-Apr-25 15:33N 47°15' W 122°26'0 0.0
2016-Apr-25 14:33N 47°15' W 122°26'0 0.0
2016-Apr-25 13:33N 47°15' W 122°26'0 0.0
2016-Apr-25 12:33N 47°15' W 122°26'0 0.0
2016-Apr-25 11:33N 47°15' W 122°26'0 0.0
2016-Apr-25 10:33N 47°15' W 122°26'0 0.0
2016-Apr-25 09:33N 47°15' W 122°26'0 0.0
2016-Apr-25 08:33N 47°15' W 122°26'0 0.0
2016-Apr-25 07:33N 47°15' W 122°26'1 1.4
2016-Apr-25 06:33N 47°17' W 122°25'1 1.5
2016-Apr-25 05:33N 47°16' W 122°24'1 0.9
2016-Apr-25 04:33N 47°16' W 122°25'1 1.3
2016-Apr-25 03:33N 47°17' W 122°27'1 1.3
2016-Apr-25 02:33N 47°17' W 122°25'1 1.4
2016-Apr-25 01:33N 47°16' W 122°23'0 0.0
2016-Apr-25 00:33N 47°16' W 122°23'0 0.0
2016-Apr-24 23:33N 47°16' W 122°23'2 2.0
2016-Apr-24 22:33N 47°15' W 122°26'0 0.0
2016-Apr-24 21:33N 47°15' W 122°26'0 0.0
2016-Apr-24 20:23N 47°15' W 122°26'0 0.0
2016-Apr-24 19:33N 47°15' W 122°26'0 0.0
2016-Apr-24 18:33N 47°15' W 122°26'0 0.0
2016-Apr-24 17:33N 47°15' W 122°26'0 0.0
2016-Apr-24 16:33N 47°15' W 122°26'0 0.0
2016-Apr-24 15:33N 47°15' W 122°26'0 0.0
2016-Apr-24 14:33N 47°15' W 122°26'0 0.0
2016-Apr-24 13:33N 47°15' W 122°26'2 1.6
2016-Apr-24 12:33N 47°17' W 122°25'1 1.3
2016-Apr-24 11:33N 47°18' W 122°26'2 1.8
2016-Apr-24 10:33N 47°16' W 122°24'0 0.0
2016-Apr-24 09:33N 47°16' W 122°24'0 0.0
2016-Apr-24 08:33N 47°16' W 122°24'0 0.0
2016-Apr-24 07:33N 47°16' W 122°24'0 0.0
2016-Apr-24 06:33N 47°16' W 122°24'0 0.0
2016-Apr-24 05:33N 47°16' W 122°24'0 0.0
2016-Apr-24 04:33N 47°16' W 122°24'0 0.0
2016-Apr-24 03:33N 47°16' W 122°24'0 0.1
2016-Apr-24 02:33N 47°16' W 122°24'2 1.9
2016-Apr-24 01:33N 47°17' W 122°27'1 1.4
2016-Apr-24 00:33N 47°16' W 122°25'1 1.1
2016-Apr-23 23:33N 47°15' W 122°26'0 0.0
2016-Apr-23 22:33N 47°15' W 122°26'0 0.0
2016-Apr-23 21:33N 47°15' W 122°26'0 0.0
2016-Apr-23 20:33N 47°15' W 122°26'0 0.0
2016-Apr-23 19:33N 47°15' W 122°26'0 0.0
2016-Apr-23 18:33N 47°15' W 122°26'0 0.0
2016-Apr-23 17:33N 47°15' W 122°26'0 0.0
2016-Apr-23 16:32N 47°15' W 122°26'0 0.0
2016-Apr-23 15:33N 47°15' W 122°26'0 0.0
2016-Apr-23 14:33N 47°15' W 122°26'0 0.0
2016-Apr-23 13:32N 47°15' W 122°26'0 0.0
2016-Apr-23 12:33N 47°15' W 122°26'0 0.0
2016-Apr-23 11:33N 47°15' W 122°26'2 1.8
2016-Apr-23 10:32N 47°16' W 122°23'1 0.9
2016-Apr-23 09:33N 47°16' W 122°24'1 1.4
2016-Apr-23 08:33N 47°17' W 122°26'2 1.7
2016-Apr-23 07:33N 47°15' W 122°26'0 0.0
2016-Apr-23 06:33N 47°15' W 122°26'0 0.0
2016-Apr-23 05:33N 47°15' W 122°26'0 0.0
2016-Apr-23 04:33N 47°15' W 122°26'0 0.0
2016-Apr-23 03:33N 47°15' W 122°26'0 0.0
2016-Apr-23 02:33N 47°15' W 122°26'0 0.0
2016-Apr-23 01:33N 47°15' W 122°26'0 0.0
2016-Apr-23 00:33N 47°15' W 122°26'0 0.0
2016-Apr-22 23:33N 47°15' W 122°26'2 1.5
2016-Apr-22 22:27N 47°16' W 122°24'1 1.1
2016-Apr-22 21:33N 47°17' W 122°25'1 1.2
2016-Apr-22 20:31N 47°16' W 122°25'2 1.7
2016-Apr-22 19:33N 47°18' W 122°26'0 0.2
2016-Apr-22 18:33N 47°18' W 122°26'0 0.0
2016-Apr-22 17:33N 47°18' W 122°26'0 0.0
2016-Apr-22 16:32N 47°18' W 122°26'0 0.0
2016-Apr-22 15:31N 47°18' W 122°26'0 0.0
2016-Apr-22 14:33N 47°18' W 122°26'0 0.0
2016-Apr-22 13:33N 47°18' W 122°26'0 0.0
2016-Apr-22 12:32N 47°18' W 122°26'0 0.0
2016-Apr-22 11:33N 47°18' W 122°26'1 1.3
2016-Apr-22 10:33N 47°17' W 122°25'2 2.0
2016-Apr-22 09:31N 47°15' W 122°23'2 2.4
2016-Apr-22 08:33N 47°15' W 122°26'0 0.0
2016-Apr-22 07:33N 47°15' W 122°26'0 0.0
2016-Apr-22 06:33N 47°15' W 122°26'0 0.0
2016-Apr-22 05:33N 47°15' W 122°26'0 0.0
2016-Apr-22 04:33N 47°15' W 122°26'0 0.0
2016-Apr-22 03:33N 47°15' W 122°26'0 0.0
2016-Apr-22 02:33N 47°15' W 122°26'0 0.0
2016-Apr-22 01:33N 47°15' W 122°26'0 0.0
2016-Apr-22 00:31N 47°15' W 122°26'0 0.0
2016-Apr-21 23:33N 47°15' W 122°26'0 0.0
2016-Apr-21 22:33N 47°15' W 122°26'0 0.0
2016-Apr-21 21:33N 47°15' W 122°26'0 0.0
2016-Apr-21 20:33N 47°15' W 122°26'0 0.0
2016-Apr-21 19:31N 47°15' W 122°26'0 0.0
2016-Apr-21 18:33N 47°15' W 122°26'0 0.0
2016-Apr-21 17:29N 47°15' W 122°26'0 0.0
2016-Apr-21 16:33N 47°15' W 122°26'0 0.0
2016-Apr-21 15:33N 47°15' W 122°26'0 0.0
2016-Apr-21 14:33N 47°15' W 122°26'1 0.8
2016-Apr-21 13:33N 47°16' W 122°26'2 2.0
2016-Apr-21 12:33N 47°16' W 122°23'0 0.1
2016-Apr-21 11:33N 47°16' W 122°23'1 0.9
2016-Apr-21 10:33N 47°16' W 122°24'1 1.1
2016-Apr-21 09:33N 47°16' W 122°23'1 0.4
2016-Apr-21 07:32N 47°16' W 122°24'4 4.3
2016-Apr-21 06:33N 47°20' W 122°27'6 6.3
2016-Apr-21 05:33N 47°26' W 122°23'7 7.1
2016-Apr-21 04:33N 47°32' W 122°27'8 7.5
2016-Apr-21 03:33N 47°40' W 122°28'7 7.0
2016-Apr-21 02:33N 47°47' W 122°27'7 7.1
2016-Apr-21 01:33N 47°54' W 122°30'16 7.3
2016-Apr-20 23:25N 48°07' W 122°43'3 3.0
2016-Apr-20 22:32N 48°05' W 122°45'2 1.8
2016-Apr-20 21:15N 48°07' W 122°44'6 3.4
2016-Apr-20 19:33N 48°03' W 122°38'8 7.6
2016-Apr-20 18:33N 47°56' W 122°31'8 8.1
2016-Apr-20 17:33N 47°49' W 122°27'8 8.3
2016-Apr-20 16:33N 47°41' W 122°27'7 6.7
2016-Apr-20 15:33N 47°35' W 122°21'0 0.0
2016-Apr-20 14:33N 47°35' W 122°21'0 0.5
2016-Apr-20 13:33N 47°36' W 122°21'1 0.8
2016-Apr-20 12:33N 47°35' W 122°22'2 1.5
2016-Apr-20 11:33N 47°34' W 122°21'0 0.4
2016-Apr-20 10:33N 47°34' W 122°21'2 2.1
2016-Apr-20 09:33N 47°36' W 122°22'1 0.8
2016-Apr-20 08:33N 47°35' W 122°21'0 0.0
2016-Apr-20 07:34N 47°35' W 122°21'0 0.0
2016-Apr-20 06:33N 47°35' W 122°21'0 0.2
2016-Apr-20 05:33N 47°35' W 122°21'0 0.0
2016-Apr-20 04:33N 47°35' W 122°21'0 0.2
2016-Apr-20 03:33N 47°35' W 122°21'0 0.0
2016-Apr-20 02:33N 47°35' W 122°21'1 0.6
2016-Apr-20 01:33N 47°36' W 122°21'1 1.1
2016-Apr-20 00:33N 47°35' W 122°22'3 2.8
2016-Apr-19 23:33N 47°37' W 122°24'1110.5
2016-Apr-19 22:33N 47°47' W 122°28'3210.5
2016-Apr-19 19:32N 48°12' W 122°58'1 0.5
2016-Apr-19 18:29N 48°12' W 122°58'1412.1
2016-Apr-19 17:20N 48°06' W 122°39'1013.5
2016-Apr-19 16:33N 47°57' W 122°33'1212.3
2016-Apr-19 15:33N 47°45' W 122°26'1111.5
2016-Apr-19 14:34N 47°34' W 122°30'1 1.5
2016-Apr-19 13:33N 47°34' W 122°32'5 5.0
2016-Apr-19 12:33N 47°29' W 122°30'7 7.1
2016-Apr-19 11:33N 47°22' W 122°32'6 5.9
2016-Apr-19 10:33N 47°18' W 122°26'0 0.0
2016-Apr-19 09:33N 47°18' W 122°26'0 0.0
2016-Apr-19 08:33N 47°18' W 122°26'3 2.8
2016-Apr-19 07:33N 47°16' W 122°23'  
Track history (hours):
 
Tides and Currents Weather Stations Pressure Air Temp Water Temp Dewpoint Dewpoint Depression Visibility Wind Speed Wind Dir Waves Ship Positions

Guide

Owner: Crowley Marine Services, SEATTLE, WA. More information available from US FCC via Universal Licensing System and Coast Guard Vessel Documentation Center.

Last reported at 2016-Apr-29 07:32 UTC. Time now 2016-Apr-29 08:19 UTC.
Position N 47°17' W 122°26'.

Length 34 m; draft 5.1 m.

Type: Tug. MMSI: 366759530.

Date/timePositionNaut miles runAvg speedWind from/ knotsBaromVisibWave heightAir tempDewpointWater temp
2016-Apr-29 07:32N 47°17' W 122°26'2 1.9
2016-Apr-29 06:31N 47°15' W 122°26'0 0.0
2016-Apr-29 05:33N 47°15' W 122°26'0 0.0
2016-Apr-29 04:33N 47°15' W 122°26'0 0.0
2016-Apr-29 03:33N 47°15' W 122°26'0 0.0
2016-Apr-29 02:24N 47°15' W 122°26'2 1.7
2016-Apr-29 01:23N 47°16' W 122°24'1 1.2
2016-Apr-29 00:33N 47°15' W 122°23'2 2.4
2016-Apr-28 23:33N 47°15' W 122°26'0 0.0
2016-Apr-28 22:32N 47°15' W 122°26'0 0.0
2016-Apr-28 21:28N 47°15' W 122°26'0 0.0
2016-Apr-28 20:32N 47°15' W 122°26'0 0.0
2016-Apr-28 19:33N 47°15' W 122°26'0 0.0
2016-Apr-28 18:33N 47°15' W 122°26'0 0.0
2016-Apr-28 17:33N 47°15' W 122°26'0 0.0
2016-Apr-28 16:33N 47°15' W 122°26'0 0.0
2016-Apr-28 15:33N 47°15' W 122°26'0 0.0
2016-Apr-28 14:33N 47°15' W 122°26'0 0.0
2016-Apr-28 13:33N 47°15' W 122°26'0 0.0
2016-Apr-28 12:33N 47°15' W 122°26'0 0.0
2016-Apr-28 11:33N 47°15' W 122°26'2 0.6
2016-Apr-28 07:29N 47°18' W 122°26'0 0.0
2016-Apr-28 06:32N 47°18' W 122°26'0 0.0
2016-Apr-28 05:33N 47°18' W 122°26'0 0.0
2016-Apr-28 04:32N 47°18' W 122°26'2 1.6
2016-Apr-28 03:33N 47°16' W 122°25'2 1.6
2016-Apr-28 02:33N 47°18' W 122°26'0 0.0
2016-Apr-28 01:33N 47°18' W 122°26'1 0.5
2016-Apr-28 00:33N 47°17' W 122°26'2 2.4
2016-Apr-27 23:33N 47°16' W 122°23'2 1.5
2016-Apr-27 22:33N 47°17' W 122°25'0 0.4
2016-Apr-27 21:28N 47°16' W 122°24'2 1.7
2016-Apr-27 20:33N 47°17' W 122°26'2 1.7
2016-Apr-27 19:22N 47°15' W 122°26'0 0.0
2016-Apr-27 18:33N 47°15' W 122°26'0 0.0
2016-Apr-27 17:33N 47°15' W 122°26'0 0.0
2016-Apr-27 16:33N 47°15' W 122°26'0 0.0
2016-Apr-27 15:33N 47°15' W 122°26'0 0.0
2016-Apr-27 14:33N 47°15' W 122°26'0 0.0
2016-Apr-27 13:33N 47°15' W 122°26'0 0.0
2016-Apr-27 12:33N 47°15' W 122°26'0 0.0
2016-Apr-27 11:33N 47°15' W 122°26'2 1.7
2016-Apr-27 10:33N 47°17' W 122°25'2 1.9
2016-Apr-27 09:33N 47°16' W 122°23'1 0.4
2016-Apr-27 07:32N 47°16' W 122°24'1 0.7
2016-Apr-27 06:33N 47°16' W 122°25'1 1.5
2016-Apr-27 05:32N 47°18' W 122°26'0 0.1
2016-Apr-27 04:33N 47°18' W 122°26'0 0.0
2016-Apr-27 03:33N 47°18' W 122°26'0 0.0
2016-Apr-27 02:33N 47°18' W 122°26'1 1.0
2016-Apr-27 01:33N 47°17' W 122°25'2 1.7
2016-Apr-27 00:32N 47°16' W 122°23'2 1.5
2016-Apr-26 23:33N 47°17' W 122°25'0 0.1
2016-Apr-26 22:33N 47°17' W 122°25'2 1.6
2016-Apr-26 21:33N 47°15' W 122°26'0 0.0
2016-Apr-26 20:32N 47°15' W 122°26'0 0.0
2016-Apr-26 19:33N 47°15' W 122°26'0 0.0
2016-Apr-26 18:31N 47°15' W 122°26'0 0.0
2016-Apr-26 17:33N 47°15' W 122°26'0 0.0
2016-Apr-26 16:33N 47°15' W 122°26'0 0.0
2016-Apr-26 15:33N 47°15' W 122°26'0 0.0
2016-Apr-26 14:33N 47°15' W 122°26'1 0.8
2016-Apr-26 13:33N 47°16' W 122°26'3 2.3
2016-Apr-26 12:24N 47°15' W 122°23'3 3.2
2016-Apr-26 11:33N 47°17' W 122°26'2 2.0
2016-Apr-26 10:33N 47°15' W 122°26'0 0.0
2016-Apr-26 09:33N 47°15' W 122°26'0 0.0
2016-Apr-26 08:33N 47°15' W 122°26'0 0.0
2016-Apr-26 07:33N 47°15' W 122°26'0 0.0
2016-Apr-26 06:33N 47°15' W 122°26'0 0.0
2016-Apr-26 05:33N 47°15' W 122°26'0 0.0
2016-Apr-26 04:33N 47°15' W 122°26'0 0.0
2016-Apr-26 03:33N 47°15' W 122°26'0 0.0
2016-Apr-26 02:33N 47°15' W 122°26'0 0.0
2016-Apr-26 01:33N 47°15' W 122°26'0 0.0
2016-Apr-26 00:33N 47°15' W 122°26'1 1.1
2016-Apr-25 23:33N 47°16' W 122°25'0 0.0
2016-Apr-25 22:33N 47°16' W 122°25'0 0.4
2016-Apr-25 21:33N 47°16' W 122°25'1 1.1
2016-Apr-25 20:33N 47°17' W 122°26'3 2.6
2016-Apr-25 19:33N 47°16' W 122°23'1 1.3
2016-Apr-25 18:33N 47°16' W 122°24'2 1.6
2016-Apr-25 17:33N 47°15' W 122°26'0 0.0
2016-Apr-25 16:33N 47°15' W 122°26'0 0.0
2016-Apr-25 15:33N 47°15' W 122°26'0 0.0
2016-Apr-25 14:33N 47°15' W 122°26'0 0.0
2016-Apr-25 13:33N 47°15' W 122°26'0 0.0
2016-Apr-25 12:33N 47°15' W 122°26'0 0.0
2016-Apr-25 11:33N 47°15' W 122°26'0 0.0
2016-Apr-25 10:33N 47°15' W 122°26'0 0.0
2016-Apr-25 09:33N 47°15' W 122°26'0 0.0
2016-Apr-25 08:33N 47°15' W 122°26'0 0.0
2016-Apr-25 07:33N 47°15' W 122°26'1 1.4
2016-Apr-25 06:33N 47°17' W 122°25'1 1.5
2016-Apr-25 05:33N 47°16' W 122°24'1 0.9
2016-Apr-25 04:33N 47°16' W 122°25'1 1.3
2016-Apr-25 03:33N 47°17' W 122°27'1 1.3
2016-Apr-25 02:33N 47°17' W 122°25'1 1.4
2016-Apr-25 01:33N 47°16' W 122°23'0 0.0
2016-Apr-25 00:33N 47°16' W 122°23'0 0.0
2016-Apr-24 23:33N 47°16' W 122°23'2 2.0
2016-Apr-24 22:33N 47°15' W 122°26'0 0.0
2016-Apr-24 21:33N 47°15' W 122°26'0 0.0
2016-Apr-24 20:23N 47°15' W 122°26'0 0.0
2016-Apr-24 19:33N 47°15' W 122°26'0 0.0
2016-Apr-24 18:33N 47°15' W 122°26'0 0.0
2016-Apr-24 17:33N 47°15' W 122°26'0 0.0
2016-Apr-24 16:33N 47°15' W 122°26'0 0.0
2016-Apr-24 15:33N 47°15' W 122°26'0 0.0
2016-Apr-24 14:33N 47°15' W 122°26'0 0.0
2016-Apr-24 13:33N 47°15' W 122°26'2 1.6
2016-Apr-24 12:33N 47°17' W 122°25'1 1.3
2016-Apr-24 11:33N 47°18' W 122°26'2 1.8
2016-Apr-24 10:33N 47°16' W 122°24'0 0.0
2016-Apr-24 09:33N 47°16' W 122°24'0 0.0
2016-Apr-24 08:33N 47°16' W 122°24'0 0.0
2016-Apr-24 07:33N 47°16' W 122°24'0 0.0
2016-Apr-24 06:33N 47°16' W 122°24'0 0.0
2016-Apr-24 05:33N 47°16' W 122°24'0 0.0
2016-Apr-24 04:33N 47°16' W 122°24'0 0.0
2016-Apr-24 03:33N 47°16' W 122°24'0 0.1
2016-Apr-24 02:33N 47°16' W 122°24'2 1.9
2016-Apr-24 01:33N 47°17' W 122°27'1 1.4
2016-Apr-24 00:33N 47°16' W 122°25'1 1.1
2016-Apr-23 23:33N 47°15' W 122°26'0 0.0
2016-Apr-23 22:33N 47°15' W 122°26'0 0.0
2016-Apr-23 21:33N 47°15' W 122°26'0 0.0
2016-Apr-23 20:33N 47°15' W 122°26'0 0.0
2016-Apr-23 19:33N 47°15' W 122°26'0 0.0
2016-Apr-23 18:33N 47°15' W 122°26'0 0.0
2016-Apr-23 17:33N 47°15' W 122°26'0 0.0
2016-Apr-23 16:32N 47°15' W 122°26'0 0.0
2016-Apr-23 15:33N 47°15' W 122°26'0 0.0
2016-Apr-23 14:33N 47°15' W 122°26'0 0.0
2016-Apr-23 13:32N 47°15' W 122°26'0 0.0
2016-Apr-23 12:33N 47°15' W 122°26'0 0.0
2016-Apr-23 11:33N 47°15' W 122°26'2 1.8
2016-Apr-23 10:32N 47°16' W 122°23'1 0.9
2016-Apr-23 09:33N 47°16' W 122°24'1 1.4
2016-Apr-23 08:33N 47°17' W 122°26'2 1.7
2016-Apr-23 07:33N 47°15' W 122°26'0 0.0
2016-Apr-23 06:33N 47°15' W 122°26'0 0.0
2016-Apr-23 05:33N 47°15' W 122°26'0 0.0
2016-Apr-23 04:33N 47°15' W 122°26'0 0.0
2016-Apr-23 03:33N 47°15' W 122°26'0 0.0
2016-Apr-23 02:33N 47°15' W 122°26'0 0.0
2016-Apr-23 01:33N 47°15' W 122°26'0 0.0
2016-Apr-23 00:33N 47°15' W 122°26'0 0.0
2016-Apr-22 23:33N 47°15' W 122°26'2 1.5
2016-Apr-22 22:27N 47°16' W 122°24'1 1.1
2016-Apr-22 21:33N 47°17' W 122°25'1 1.2
2016-Apr-22 20:31N 47°16' W 122°25'2 1.7
2016-Apr-22 19:33N 47°18' W 122°26'0 0.2
2016-Apr-22 18:33N 47°18' W 122°26'0 0.0
2016-Apr-22 17:33N 47°18' W 122°26'0 0.0
2016-Apr-22 16:32N 47°18' W 122°26'0 0.0
2016-Apr-22 15:31N 47°18' W 122°26'0 0.0
2016-Apr-22 14:33N 47°18' W 122°26'0 0.0
2016-Apr-22 13:33N 47°18' W 122°26'0 0.0
2016-Apr-22 12:32N 47°18' W 122°26'0 0.0
2016-Apr-22 11:33N 47°18' W 122°26'1 1.3
2016-Apr-22 10:33N 47°17' W 122°25'2 2.0
2016-Apr-22 09:31N 47°15' W 122°23'2 2.4
2016-Apr-22 08:33N 47°15' W 122°26'0 0.0
2016-Apr-22 07:33N 47°15' W 122°26'0 0.0
2016-Apr-22 06:33N 47°15' W 122°26'0 0.0
2016-Apr-22 05:33N 47°15' W 122°26'0 0.0
2016-Apr-22 04:33N 47°15' W 122°26'0 0.0
2016-Apr-22 03:33N 47°15' W 122°26'0 0.0
2016-Apr-22 02:33N 47°15' W 122°26'0 0.0
2016-Apr-22 01:33N 47°15' W 122°26'0 0.0
2016-Apr-22 00:31N 47°15' W 122°26'0 0.0
2016-Apr-21 23:33N 47°15' W 122°26'0 0.0
2016-Apr-21 22:33N 47°15' W 122°26'0 0.0
2016-Apr-21 21:33N 47°15' W 122°26'0 0.0
2016-Apr-21 20:33N 47°15' W 122°26'0 0.0
2016-Apr-21 19:31N 47°15' W 122°26'0 0.0
2016-Apr-21 18:33N 47°15' W 122°26'0 0.0
2016-Apr-21 17:29N 47°15' W 122°26'0 0.0
2016-Apr-21 16:33N 47°15' W 122°26'0 0.0
2016-Apr-21 15:33N 47°15' W 122°26'0 0.0
2016-Apr-21 14:33N 47°15' W 122°26'1 0.8
2016-Apr-21 13:33N 47°16' W 122°26'2 2.0
2016-Apr-21 12:33N 47°16' W 122°23'0 0.1
2016-Apr-21 11:33N 47°16' W 122°23'1 0.9
2016-Apr-21 10:33N 47°16' W 122°24'1 1.1
2016-Apr-21 09:33N 47°16' W 122°23'1 0.4
2016-Apr-21 07:32N 47°16' W 122°24'4 4.3
2016-Apr-21 06:33N 47°20' W 122°27'6 6.3
2016-Apr-21 05:33N 47°26' W 122°23'7 7.1
2016-Apr-21 04:33N 47°32' W 122°27'8 7.5
2016-Apr-21 03:33N 47°40' W 122°28'7 7.0
2016-Apr-21 02:33N 47°47' W 122°27'7 7.1
2016-Apr-21 01:33N 47°54' W 122°30'16 7.3
2016-Apr-20 23:25N 48°07' W 122°43'3 3.0
2016-Apr-20 22:32N 48°05' W 122°45'2 1.8
2016-Apr-20 21:15N 48°07' W 122°44'6 3.4
2016-Apr-20 19:33N 48°03' W 122°38'8 7.6
2016-Apr-20 18:33N 47°56' W 122°31'8 8.1
2016-Apr-20 17:33N 47°49' W 122°27'8 8.3
2016-Apr-20 16:33N 47°41' W 122°27'7 6.7
2016-Apr-20 15:33N 47°35' W 122°21'0 0.0
2016-Apr-20 14:33N 47°35' W 122°21'0 0.5
2016-Apr-20 13:33N 47°36' W 122°21'1 0.8
2016-Apr-20 12:33N 47°35' W 122°22'2 1.5
2016-Apr-20 11:33N 47°34' W 122°21'0 0.4
2016-Apr-20 10:33N 47°34' W 122°21'2 2.1
2016-Apr-20 09:33N 47°36' W 122°22'1 0.8
2016-Apr-20 08:33N 47°35' W 122°21'0 0.0
2016-Apr-20 07:34N 47°35' W 122°21'0 0.0
2016-Apr-20 06:33N 47°35' W 122°21'0 0.2
2016-Apr-20 05:33N 47°35' W 122°21'0 0.0
2016-Apr-20 04:33N 47°35' W 122°21'0 0.2
2016-Apr-20 03:33N 47°35' W 122°21'0 0.0
2016-Apr-20 02:33N 47°35' W 122°21'1 0.6
2016-Apr-20 01:33N 47°36' W 122°21'1 1.1
2016-Apr-20 00:33N 47°35' W 122°22'3 2.8
2016-Apr-19 23:33N 47°37' W 122°24'1110.5
2016-Apr-19 22:33N 47°47' W 122°28'3210.5
2016-Apr-19 19:32N 48°12' W 122°58'1 0.5
2016-Apr-19 18:29N 48°12' W 122°58'1412.1
2016-Apr-19 17:20N 48°06' W 122°39'1013.5
2016-Apr-19 16:33N 47°57' W 122°33'1212.3
2016-Apr-19 15:33N 47°45' W 122°26'1111.5
2016-Apr-19 14:34N 47°34' W 122°30'1 1.5
2016-Apr-19 13:33N 47°34' W 122°32'5 5.0
2016-Apr-19 12:33N 47°29' W 122°30'7 7.1
2016-Apr-19 11:33N 47°22' W 122°32'6 5.9
2016-Apr-19 10:33N 47°18' W 122°26'0 0.0
2016-Apr-19 09:33N 47°18' W 122°26'0 0.0
2016-Apr-19 08:33N 47°18' W 122°26'3 2.8
2016-Apr-19 07:33N 47°16' W 122°23'  

Dump ship's entire track history